Centre Hospitalier Heliport

FR-0161 · Maine-et-Loire, Paesi della Loira, Francia

Storia di METAR FR-0161 · Centre Hospitalier Heliport

Di seguito sono riportati i METAR degli ultimi giorni. Seleziona un anno per sfogliare i METAR più vecchi, dall'anno 2007 in poi.

15 luglio 2024

Tempo Codice Tempo meteorologico Temp. Vista Base nuvolosa Vento METAR/SPECI
01:30
V
14 °C 10 km+ - 360° 360° 0 kt METAR LFJR 142330Z AUTO 00000KT CAVOK 14/12 Q1012
01:00
V
15 °C 10 km+ - 360° 360° 0 kt METAR LFJR 142300Z AUTO 00000KT CAVOK 15/13 Q1012
00:30
V
15 °C 10 km+ - 260° 260° 4 kt METAR LFJR 142230Z AUTO 26004KT CAVOK 15/13 Q1012
00:00
V
15 °C 10 km+ - 080° 080° 2 kt METAR LFJR 142200Z AUTO 08002KT CAVOK 15/13 Q1012

14 luglio 2024

Tempo Codice Tempo meteorologico Temp. Vista Base nuvolosa Vento METAR/SPECI
23:30
V
15 °C 10 km+ - 090° 090° 2 kt METAR LFJR 142130Z AUTO 09002KT CAVOK 15/13 Q1012
23:00
V
16 °C 10 km+ - 080° 080° 2 kt METAR LFJR 142100Z AUTO 08002KT CAVOK 16/14 Q1012
22:30
V
17 °C 10 km+ - 360° 360° 0 kt METAR LFJR 142030Z AUTO 00000KT 9999 -RA NSC 17/14 Q1012
22:00
V
18 °C 10 km+ - 070° 070° 1 kt METAR LFJR 142000Z AUTO 07001KT CAVOK 18/15 Q1012
21:30
V
21 °C 10 km+ - 110° 110° 1 kt METAR LFJR 141930Z AUTO 11001KT CAVOK 21/15 Q1012
21:00
V
23 °C 10 km+ - Var Var 2 kt METAR LFJR 141900Z AUTO VRB02KT CAVOK 23/14 Q1012
20:30
V
24 °C 10 km+ - 210° 210° 2 kt METAR LFJR 141830Z AUTO 21002KT CAVOK 24/14 Q1012
20:00
V
25 °C 10 km+ - Var Var 1 kt METAR LFJR 141800Z AUTO VRB01KT CAVOK 25/13 Q1012
19:30
V
24 °C 10 km+ - 160° 160° 5 kt METAR LFJR 141730Z AUTO 16005KT 120V180 CAVOK 24/13 Q1012
19:00
V
24 °C 10 km+ - 170° 170° 5 kt METAR LFJR 141700Z AUTO 17005KT 130V220 CAVOK 24/13 Q1012
18:30
V
24 °C 10 km+ - 180° 180° 5 kt METAR LFJR 141630Z AUTO 18005KT 110V220 CAVOK 24/13 Q1012
18:00
V
24 °C 10 km+ - Var Var 2 kt METAR LFJR 141600Z AUTO VRB02KT CAVOK 24/13 Q1012
17:30
V
24 °C 10 km+ - 200° 200° 5 kt METAR LFJR 141530Z AUTO 20005KT 140V270 9999 FEW049 24/13 Q1012
17:00
V
24 °C 10 km+ - 200° 200° 4 kt METAR LFJR 141500Z AUTO 20004KT 130V270 9999 SCT049 24/13 Q1013
16:30
V
24 °C 10 km+ 4.900 ft 180° 180° 6 kt METAR LFJR 141430Z AUTO 18006KT 120V230 9999 BKN049 24/12 Q1013
16:00
V
23 °C 10 km+ 10.000 ft 190° 190° 6 kt METAR LFJR 141400Z AUTO 19006KT 130V230 9999 FEW049 BKN100 23/12 Q1013
15:30
V
24 °C 10 km+ 4.700 ft Var Var 6 kt METAR LFJR 141330Z AUTO VRB06KT 9999 BKN047 24/13 Q1013
15:00
V
23 °C 10 km+ - 200° 200° 5 kt METAR LFJR 141300Z AUTO 20005KT 160V260 9999 SCT046 23/12 Q1013
14:30
V
23 °C 10 km+ - 200° 200° 4 kt METAR LFJR 141230Z AUTO 20004KT 130V280 CAVOK 23/13 Q1013
14:00
V
22 °C 10 km+ - 150° 150° 6 kt METAR LFJR 141200Z AUTO 15006KT 110V190 CAVOK 22/14 Q1013
13:30
V
19 °C 10 km+ - 120° 120° 6 kt METAR LFJR 141130Z AUTO 12006KT CAVOK 19/15 Q1012
13:00
V
19 °C 10 km+ - 120° 120° 5 kt METAR LFJR 141100Z AUTO 12005KT CAVOK 19/14 Q1013
12:30
V
18 °C 10 km+ - 180° 180° 3 kt METAR LFJR 141030Z AUTO 18003KT 150V220 CAVOK 18/14 Q1013
12:00
V
18 °C 10 km+ - 170° 170° 4 kt METAR LFJR 141000Z AUTO 17004KT 130V200 CAVOK 18/14 Q1013
11:30
V
19 °C 10 km+ - 180° 180° 5 kt METAR LFJR 140930Z AUTO 18005KT 140V210 CAVOK 19/13 Q1013
11:00
V
18 °C 10 km+ - 170° 170° 5 kt METAR LFJR 140900Z AUTO 17005KT CAVOK 18/14 Q1013
10:30
V
19 °C 10 km+ - 150° 150° 4 kt METAR LFJR 140830Z AUTO 15004KT 100V180 CAVOK 19/14 Q1013
10:00
V
17 °C 10 km+ - Var Var 3 kt METAR LFJR 140800Z AUTO VRB03KT CAVOK 17/13 Q1013
09:30
V
17 °C 10 km+ - 150° 150° 3 kt METAR LFJR 140730Z AUTO 15003KT 120V190 CAVOK 17/13 Q1013
09:00
V
18 °C 10 km+ - 110° 110° 6 kt METAR LFJR 140700Z AUTO 11006KT CAVOK 18/13 Q1013
08:30
V
16 °C 10 km+ - 360° 360° 0 kt METAR LFJR 140630Z AUTO 00000KT CAVOK 16/13 Q1013
08:00
V
14 °C 10 km+ - 360° 360° 0 kt METAR LFJR 140600Z AUTO 00000KT CAVOK 14/12 Q1012
07:30
V
12 °C 10 km+ - Var Var 1 kt METAR LFJR 140530Z AUTO VRB01KT CAVOK 12/12 Q1013
07:00
V
10 °C 10 km+ - Var Var 2 kt METAR LFJR 140500Z AUTO VRB02KT CAVOK 10/09 Q1012
06:30
V
9 °C 10 km+ - 090° 090° 3 kt METAR LFJR 140430Z AUTO 09003KT CAVOK 09/09 Q1012
06:00
V
9 °C 10 km+ - 070° 070° 2 kt METAR LFJR 140400Z AUTO 07002KT CAVOK 09/09 Q1012
05:30
V
9 °C 10 km+ - 080° 080° 2 kt METAR LFJR 140330Z AUTO 08002KT CAVOK 09/09 Q1012
05:00
V
10 °C 10 km+ - 100° 100° 2 kt METAR LFJR 140300Z AUTO 10002KT CAVOK 10/09 Q1013
04:30
V
10 °C 10 km+ - 360° 360° 0 kt METAR LFJR 140230Z AUTO 00000KT CAVOK 10/10 Q1013
04:00
V
9 °C 10 km+ - 080° 080° 2 kt METAR LFJR 140200Z AUTO 08002KT CAVOK 09/09 Q1013
03:30
V
10 °C 10 km+ - 080° 080° 1 kt METAR LFJR 140130Z AUTO 08001KT CAVOK 10/09 Q1013
03:00
V
10 °C 10 km+ - 100° 100° 1 kt METAR LFJR 140100Z AUTO 10001KT CAVOK 10/09 Q1013
02:30
V
10 °C 10 km+ - 360° 360° 0 kt METAR LFJR 140030Z AUTO 00000KT CAVOK 10/10 Q1014
02:00
V
10 °C 10 km+ - 360° 360° 0 kt METAR LFJR 140000Z AUTO 00000KT CAVOK 10/10 Q1014
01:30
V
11 °C 10 km+ - Var Var 1 kt METAR LFJR 132330Z AUTO VRB01KT CAVOK 11/10 Q1014
01:00
V
11 °C 10 km+ - 220° 220° 2 kt METAR LFJR 132300Z AUTO 22002KT CAVOK 11/11 Q1014
00:30
V
11 °C 10 km+ - 360° 360° 0 kt METAR LFJR 132230Z AUTO 00000KT CAVOK 11/10 Q1014
00:00
V
12 °C 10 km+ - 080° 080° 1 kt METAR LFJR 132200Z AUTO 08001KT CAVOK 12/11 Q1014

13 luglio 2024

Tempo Codice Tempo meteorologico Temp. Vista Base nuvolosa Vento METAR/SPECI
23:30
V
13 °C 10 km+ - 360° 360° 0 kt METAR LFJR 132130Z AUTO 00000KT CAVOK 13/11 Q1014
23:00
V
13 °C 10 km+ - 080° 080° 2 kt METAR LFJR 132100Z AUTO 08002KT CAVOK 13/12 Q1014
22:30
V
15 °C 10 km+ - 100° 100° 1 kt METAR LFJR 132030Z AUTO 10001KT CAVOK 15/12 Q1014
22:00
V
16 °C 10 km+ - 070° 070° 1 kt METAR LFJR 132000Z AUTO 07001KT CAVOK 16/12 Q1013
21:30
V
19 °C 10 km+ - 360° 360° 0 kt METAR LFJR 131930Z AUTO 00000KT CAVOK 19/12 Q1013
21:00
V
21 °C 10 km+ - Var Var 3 kt METAR LFJR 131900Z AUTO VRB03KT CAVOK 21/10 Q1013
20:30
V
22 °C 10 km+ - 290° 290° 3 kt METAR LFJR 131830Z AUTO 29003KT 240V340 CAVOK 22/10 Q1013
20:00
V
22 °C 10 km+ - 260° 260° 4 kt METAR LFJR 131800Z AUTO 26004KT 230V320 CAVOK 22/10 Q1013
19:30
V
22 °C 10 km+ - 270° 270° 5 kt METAR LFJR 131730Z AUTO 27005KT 230V320 CAVOK 22/09 Q1013
19:00
V
22 °C 10 km+ - 300° 300° 5 kt METAR LFJR 131700Z AUTO 30005KT 250V360 CAVOK 22/10 Q1013
18:30
V
22 °C 10 km+ - 300° 300° 5 kt METAR LFJR 131630Z AUTO 30005KT 200V010 CAVOK 22/11 Q1013
18:00
V
22 °C 10 km+ - 290° 290° 4 kt METAR LFJR 131600Z AUTO 29004KT 220V010 CAVOK 22/12 Q1014
17:30
V
22 °C 10 km+ - 290° 290° 6 kt METAR LFJR 131530Z AUTO 29006KT 210V020 CAVOK 22/11 Q1014
17:00
V
21 °C 10 km+ - 250° 250° 6 kt METAR LFJR 131500Z AUTO 25006KT 210V280 9999 FEW046 21/11 Q1014
16:30
V
21 °C 10 km+ - 260° 260° 6 kt METAR LFJR 131430Z AUTO 26006KT 230V330 9999 FEW044 21/11 Q1014
16:00
V
21 °C 10 km+ 4.200 ft 270° 270° 7 kt METAR LFJR 131400Z AUTO 27007KT 190V340 9999 BKN042 21/11 Q1015
15:30
V
21 °C 10 km+ - 280° 280° 6 kt METAR LFJR 131330Z AUTO 28006KT 240V030 9999 FEW039 21/10 Q1015
15:00
V
21 °C 10 km+ - 280° 280° 5 kt METAR LFJR 131300Z AUTO 28005KT 180V340 9999 SCT036 21/11 Q1015
14:30
V
20 °C 10 km+ - 230° 230° 6 kt METAR LFJR 131230Z AUTO 23006KT 180V300 9999 SCT033 20/12 Q1015
14:00
V
20 °C 10 km+ - 300° 300° 6 kt METAR LFJR 131200Z AUTO 30006KT 220V020 9999 FEW030 20/13 Q1015
13:30
V
19 °C 10 km+ - 270° 270° 6 kt METAR LFJR 131130Z AUTO 27006KT 180V340 9999 SCT027 19/12 Q1016
13:00
V
18 °C 10 km+ - Var Var 6 kt METAR LFJR 131100Z AUTO VRB06KT 9999 SCT023 18/13 Q1016
12:30
V
18 °C 10 km+ - 280° 280° 5 kt METAR LFJR 131030Z AUTO 28005KT 210V340 9999 FEW018 18/13 Q1016
12:00
V
17 °C 10 km+ - 290° 290° 6 kt METAR LFJR 131000Z AUTO 29006KT 240V010 9999 FEW013 SCT018 17/13 Q1016
11:30
M
17 °C 10 km+ 1.100 ft 290° 290° 6 kt METAR LFJR 130930Z AUTO 29006KT 250V350 9999 BKN011 17/14 Q1016
11:00
M
16 °C 10 km+ 1.100 ft 270° 270° 5 kt METAR LFJR 130900Z AUTO 27005KT 230V350 9999 FEW006 BKN011 BKN018 16/14 Q1016
10:30
I
14 °C 10 km+ 500 ft 240° 240° 5 kt METAR LFJR 130830Z AUTO 24005KT 210V280 9999 BKN005 BKN010 OVC014 14/14 Q1016
10:00
L
14 °C 8 km 300 ft 260° 260° 3 kt METAR LFJR 130800Z AUTO 26003KT 210V280 8000 OVC003 14/13 Q1016
09:30
L
13 °C 5 km 200 ft Var Var 2 kt METAR LFJR 130730Z AUTO VRB02KT 5000 BR OVC002 13/13 Q1016
09:00
L
13 °C 3,9 km 200 ft Var Var 2 kt METAR LFJR 130700Z AUTO VRB02KT 3900 BR OVC002 13/13 Q1016
08:30
L
13 °C 5 km 300 ft 340° 340° 3 kt METAR LFJR 130630Z AUTO 34003KT 280V020 5000 BR OVC003 13/13 Q1016
08:00
L
13 °C 7 km 300 ft Var Var 2 kt METAR LFJR 130600Z AUTO VRB02KT 7000 OVC003 13/12 Q1016
07:30
I
12 °C 6 km 500 ft Var Var 2 kt METAR LFJR 130530Z AUTO VRB02KT 6000 OVC005 12/12 Q1016
07:00
L
11 °C 600 m - 360° 360° 0 kt METAR LFJR 130500Z AUTO 00000KT 0600 R26/1000U FG VV/// 11/10 Q1015
06:30
L
11 °C 300 m - Var Var 1 kt METAR LFJR 130430Z AUTO VRB01KT 0300 R26/1000U FG VV/// 11/10 Q1015
06:00
L
10 °C 500 m - 250° 250° 2 kt METAR LFJR 130400Z AUTO 25002KT 0700 0500 R26/1300U FG VV/// 10/10 Q1015
05:30
L
10 °C 550 m - 210° 210° 2 kt METAR LFJR 130330Z AUTO 21002KT 1000 0550 R26/0900U BCFG FEW005 10/10 Q1015
05:00
V
11 °C 8 km - Var Var 2 kt METAR LFJR 130300Z AUTO VRB02KT 8000 NSC 11/10 Q1015
04:30
M
11 °C 6 km - 360° 360° 0 kt METAR LFJR 130230Z AUTO 00000KT 6000 NSC 11/11 Q1015
04:00
L
10 °C 1 km - Var Var 1 kt METAR LFJR 130200Z AUTO VRB01KT 2400 1000 R26/P2000 BR NSC 10/10 Q1015
03:30
L
10 °C 550 m - 360° 360° 0 kt METAR LFJR 130130Z AUTO 00000KT 0700 0550 R26/1300U FG VV/// 10/10 Q1015
03:00
L
11 °C 650 m - 360° 360° 0 kt METAR LFJR 130100Z AUTO 00000KT 0800 0650 R26/1300U FG NSC 11/10 Q1016
02:30
L
11 °C 900 m - Var Var 2 kt METAR LFJR 130030Z AUTO VRB02KT 0900 R26/1200N FG NSC 11/10 Q1016
02:00
L
12 °C 650 m - Var Var 3 kt METAR LFJR 130000Z AUTO VRB03KT 1000 0650 R26/1800D BCFG NSC 12/11 Q1016
01:30
I
12 °C 1,6 km - 360° 360° 0 kt METAR LFJR 122330Z AUTO 00000KT 4200 1600 BR NSC 12/11 Q1016
01:00
L
13 °C 1,2 km - 270° 270° 1 kt METAR LFJR 122300Z AUTO 27001KT 8000 1200 R26/P2000 NSC 13/12 Q1016
00:30
V
13 °C 10 km+ 9.800 ft Var Var 1 kt METAR LFJR 122230Z AUTO VRB01KT 9999 SCT040 SCT056 OVC098 13/13 Q1016
00:00
V
13 °C 10 km+ - Var Var 2 kt METAR LFJR 122200Z AUTO VRB02KT CAVOK 13/13 Q1016

12 luglio 2024

Tempo Codice Tempo meteorologico Temp. Vista Base nuvolosa Vento METAR/SPECI
23:30
V
14 °C 10 km+ - Var Var 2 kt METAR LFJR 122130Z AUTO VRB02KT CAVOK 14/13 Q1016
23:00
V
14 °C 10 km+ 7.800 ft 270° 270° 4 kt METAR LFJR 122100Z AUTO 27004KT 230V310 9999 -RA FEW030 BKN078 OVC100 14/13 Q1016
22:30
V
15 °C 10 km+ - 270° 270° 4 kt METAR LFJR 122030Z AUTO 27004KT 9999 -RA ///TCU 15/13 Q1016
22:00
V
16 °C 10 km+ 7.800 ft 300° 300° 3 kt METAR LFJR 122000Z AUTO 30003KT 250V350 9999 FEW029/// BKN078/// ///CB 16/13 Q1016
21:30
V
17 °C 10 km+ 9.600 ft 260° 260° 4 kt METAR LFJR 121930Z AUTO 26004KT 9999 FEW037/// BKN096/// ///CB 17/12 Q1016
21:00
V
18 °C 10 km+ - 250° 250° 7 kt METAR LFJR 121900Z AUTO 25007KT 9999 ///CB 18/12 Q1016
20:30
V
18 °C 10 km+ - 250° 250° 10 kt METAR LFJR 121830Z AUTO 25010KT 9999 ///CB 18/12 Q1016
20:00
V
20 °C 10 km+ - 240° 240° 10 kt METAR LFJR 121800Z AUTO 24010KT CAVOK 20/11 Q1015
19:30
V
20 °C 10 km+ - 250° 250° 10 kt METAR LFJR 121730Z AUTO 25010KT 220V280 CAVOK 20/11 Q1015
19:00
V
20 °C 10 km+ - 260° 260° 10 kt METAR LFJR 121700Z AUTO 26010KT 230V290 CAVOK 20/10 Q1015
18:30
V
20 °C 10 km+ - 260° 260° 8 kt METAR LFJR 121630Z AUTO 26008KT CAVOK 20/09 Q1016
18:00
V
22 °C 10 km+ - 250° 250° 8 kt METAR LFJR 121600Z AUTO 25008KT 230V290 CAVOK 22/10 Q1016
17:30
V
22 °C 10 km+ 20.000 ft 260° 260° 8 - 18 kt METAR LFJR 121530Z AUTO 26008G18KT 200V330 9999 SCT048 SCT060 OVC200 22/09 Q1016
17:00
V
21 °C 10 km+ - 260° 260° 8 kt METAR LFJR 121500Z AUTO 26008KT 220V300 CAVOK 21/11 Q1016
16:30
V
21 °C 10 km+ - 260° 260° 7 kt METAR LFJR 121430Z AUTO 26007KT 190V310 CAVOK 21/10 Q1016
16:00
V
21 °C 10 km+ - 260° 260° 8 kt METAR LFJR 121400Z AUTO 26008KT 210V320 CAVOK 21/08 Q1016
15:30
V
21 °C 10 km+ - 250° 250° 8 kt METAR LFJR 121330Z AUTO 25008KT 220V310 9999 FEW049 21/10 Q1016
15:00
V
21 °C 10 km+ - 260° 260° 8 kt METAR LFJR 121300Z AUTO 26008KT 230V310 9999 FEW043 21/11 Q1016
14:30
V
21 °C 10 km+ 3.900 ft 270° 270° 9 kt METAR LFJR 121230Z AUTO 27009KT 230V300 9999 BKN039 BKN046 21/11 Q1017
14:00
V
20 °C 10 km+ 4.600 ft 270° 270° 8 kt METAR LFJR 121200Z AUTO 27008KT 230V320 9999 SCT035 BKN046 20/12 Q1017
13:30
V
20 °C 10 km+ - 260° 260° 8 kt METAR LFJR 121130Z AUTO 26008KT 230V350 9999 FEW028 SCT035 20/12 Q1017
13:00
V
19 °C 10 km+ 3.300 ft 260° 260° 9 kt METAR LFJR 121100Z AUTO 26009KT 230V310 9999 SCT027 BKN033 BKN048 19/13 Q1017
12:30
V
18 °C 10 km+ 5.200 ft 290° 290° 7 kt METAR LFJR 121030Z AUTO 29007KT 230V010 9999 FEW034 BKN052 18/12 Q1017
12:00
M
18 °C 10 km+ 2.900 ft 300° 300° 6 kt METAR LFJR 121000Z AUTO 30006KT 230V350 9999 BKN029 BKN036 BKN046 18/11 Q1017
11:30
M
18 °C 10 km+ 2.700 ft 300° 300° 6 kt METAR LFJR 120930Z AUTO 30006KT 240V350 9999 BKN027 18/12 Q1017
11:00
V
18 °C 10 km+ - 360° 360° 7 kt METAR LFJR 120900Z AUTO 36007KT 320V030 9999 SCT022 18/12 Q1016
10:30
M
18 °C 10 km+ 2.000 ft 350° 350° 6 kt METAR LFJR 120830Z AUTO 35006KT 300V030 9999 BKN020 BKN025 18/12 Q1016
10:00
M
17 °C 10 km+ 1.800 ft 350° 350° 6 kt METAR LFJR 120800Z AUTO 35006KT 300V030 9999 BKN018 17/12 Q1016
09:30
V
16 °C 10 km+ - 330° 330° 5 kt METAR LFJR 120730Z AUTO 33005KT 290V010 9999 FEW013 16/12 Q1016
09:00
V
15 °C 10 km+ - 320° 320° 5 kt METAR LFJR 120700Z AUTO 32005KT 270V360 9999 FEW010 15/12 Q1016
08:30
V
14 °C 10 km+ 5.600 ft 320° 320° 6 kt METAR LFJR 120630Z AUTO 32006KT 290V360 9999 FEW010 BKN056 14/12 Q1016
08:00
V
14 °C 10 km+ - 320° 320° 4 kt METAR LFJR 120600Z AUTO 32004KT 270V360 CAVOK 14/12 Q1016
Segnala modifiche